createdAt,value
2018-07-06T00:00:05.509Z,65.19
2018-07-06T00:02:52.045Z,64.49
2018-07-06T00:05:38.277Z,64.35
2018-07-06T00:08:24.649Z,64.41
2018-07-06T00:11:10.922Z,64.13
2018-07-06T00:13:57.261Z,64.40
2018-07-06T00:16:43.777Z,63.83
2018-07-06T00:19:30.105Z,64.61
2018-07-06T00:22:16.416Z,64.69
2018-07-06T00:25:02.529Z,65.36
2018-07-06T00:27:48.857Z,63.62
2018-07-06T00:30:35.363Z,65.50
2018-07-06T00:33:21.784Z,66.69
2018-07-06T00:36:07.989Z,65.16
2018-07-06T00:38:54.211Z,64.46
2018-07-06T00:41:40.789Z,65.01
2018-07-06T00:44:27.353Z,65.24
2018-07-06T00:47:13.625Z,65.81
2018-07-06T00:50:00.068Z,65.46
2018-07-06T00:52:46.470Z,65.69
2018-07-06T00:55:32.909Z,65.67
2018-07-06T00:58:23.137Z,66.99
2018-07-06T01:01:09.465Z,67.00
2018-07-06T01:03:55.553Z,66.48
2018-07-06T01:06:41.926Z,67.12
2018-07-06T01:09:28.301Z,67.60
2018-07-06T01:12:20.137Z,68.12
2018-07-06T01:15:12.021Z,66.90
2018-07-06T01:17:58.273Z,66.41
2018-07-06T01:20:44.868Z,65.62
2018-07-06T01:23:31.257Z,66.44
2018-07-06T01:26:18.072Z,66.36
2018-07-06T01:29:04.285Z,66.86
2018-07-06T01:31:50.592Z,66.90
2018-07-06T01:34:37.061Z,66.49
2018-07-06T01:37:23.597Z,66.20
2018-07-06T01:40:10.133Z,66.96
2018-07-06T01:42:56.369Z,68.51
2018-07-06T01:45:42.677Z,68.02
2018-07-06T01:48:28.996Z,68.20
2018-07-06T01:51:15.314Z,67.89
2018-07-06T01:54:01.736Z,67.59
2018-07-06T01:56:48.190Z,66.96
2018-07-06T01:59:34.737Z,66.72
2018-07-06T02:02:20.933Z,67.36
2018-07-06T02:05:07.401Z,67.97
2018-07-06T02:07:53.817Z,67.94
2018-07-06T02:10:40.096Z,68.13
2018-07-06T02:13:26.489Z,68.07
2018-07-06T02:16:12.885Z,69.48
2018-07-06T02:18:59.345Z,69.90
2018-07-06T02:21:45.616Z,70.04
2018-07-06T02:24:32.190Z,69.82
2018-07-06T02:27:18.645Z,69.96
2018-07-06T02:30:05.057Z,69.56
2018-07-06T02:32:51.513Z,70.57
2018-07-06T02:35:37.962Z,69.48
2018-07-06T02:38:24.093Z,69.50
2018-07-06T02:41:10.538Z,69.37
2018-07-06T02:43:56.852Z,69.45
2018-07-06T02:46:43.139Z,70.83
2018-07-06T02:49:29.477Z,69.88
2018-07-06T02:52:15.813Z,70.79
2018-07-06T02:55:02.324Z,69.55
2018-07-06T02:57:48.817Z,70.52
2018-07-06T03:00:35.158Z,69.52
2018-07-06T03:03:21.437Z,71.37
2018-07-06T03:06:07.688Z,70.75
2018-07-06T03:08:53.965Z,71.04
2018-07-06T03:11:40.267Z,70.31
2018-07-06T03:14:26.678Z,70.94
2018-07-06T03:17:12.854Z,71.39
2018-07-06T03:19:59.201Z,71.58
2018-07-06T03:22:45.349Z,71.13
2018-07-06T03:25:31.745Z,71.39
2018-07-06T03:28:18.014Z,71.67
2018-07-06T03:31:04.337Z,71.13
2018-07-06T03:33:50.892Z,71.93
2018-07-06T03:36:37.168Z,72.65
2018-07-06T03:39:23.429Z,71.75
2018-07-06T03:42:09.689Z,72.35
2018-07-06T03:44:56.005Z,72.19
2018-07-06T03:47:42.317Z,72.45
2018-07-06T03:50:28.677Z,72.31
2018-07-06T03:53:15.105Z,72.18
2018-07-06T03:56:01.357Z,71.15
2018-07-06T03:58:47.709Z,71.51
2018-07-06T04:01:34.194Z,71.51
2018-07-06T04:04:20.562Z,72.34
2018-07-06T04:07:06.885Z,72.42
2018-07-06T04:09:53.196Z,71.55
2018-07-06T04:12:39.488Z,71.02
2018-07-06T04:15:25.733Z,72.09
2018-07-06T04:18:12.234Z,71.38
2018-07-06T04:20:58.332Z,72.53
2018-07-06T04:23:44.805Z,72.32
2018-07-06T04:26:31.187Z,71.56
2018-07-06T04:29:17.429Z,71.51
2018-07-06T04:32:03.605Z,71.72
2018-07-06T04:34:51.073Z,72.36
2018-07-06T04:37:40.990Z,72.78
2018-07-06T04:40:27.454Z,72.05
2018-07-06T04:43:13.636Z,72.33
2018-07-06T04:46:00.037Z,73.42
2018-07-06T04:48:46.569Z,73.33
2018-07-06T04:51:32.838Z,73.69
2018-07-06T04:54:19.118Z,73.11
2018-07-06T04:57:05.437Z,73.29
2018-07-06T04:59:51.814Z,72.78
2018-07-06T05:02:38.383Z,72.23
2018-07-06T05:05:24.789Z,73.09
2018-07-06T05:08:11.174Z,72.11
2018-07-06T05:10:57.469Z,71.93
2018-07-06T05:13:44.162Z,73.02
2018-07-06T05:16:30.555Z,72.44
2018-07-06T05:19:16.945Z,72.20
2018-07-06T05:22:03.285Z,72.82
2018-07-06T05:24:49.593Z,73.05
2018-07-06T05:27:36.156Z,72.34
2018-07-06T05:30:22.573Z,73.32
2018-07-06T05:33:09.069Z,73.35
2018-07-06T05:35:55.349Z,73.55
2018-07-06T05:38:41.698Z,74.16
2018-07-06T05:41:28.161Z,73.21
2018-07-06T05:44:14.330Z,73.30
2018-07-06T05:47:00.653Z,73.06
2018-07-06T05:49:47.134Z,72.64
2018-07-06T05:52:33.478Z,72.63
2018-07-06T05:55:19.970Z,72.31
2018-07-06T05:58:06.509Z,73.28
2018-07-06T06:00:52.769Z,72.64
2018-07-06T06:03:39.048Z,72.18
2018-07-06T06:06:25.358Z,72.88
2018-07-06T06:08:59.972Z,71.90
2018-07-06T06:11:29.094Z,70.88
2018-07-06T06:13:58.209Z,71.89
2018-07-06T06:16:27.313Z,72.04
2018-07-06T06:18:56.469Z,71.74
2018-07-06T06:21:25.604Z,71.60
2018-07-06T06:23:54.728Z,72.31
2018-07-06T06:26:26.738Z,71.89
2018-07-06T06:28:55.865Z,71.41
2018-07-06T06:31:25.049Z,71.36
2018-07-06T06:33:54.382Z,70.49
2018-07-06T06:36:23.970Z,71.12
2018-07-06T06:38:53.133Z,71.00
2018-07-06T06:41:22.331Z,70.47
2018-07-06T06:43:51.677Z,70.71
2018-07-06T06:46:20.848Z,70.13
2018-07-06T06:48:50.031Z,70.18
2018-07-06T06:51:19.164Z,70.88
2018-07-06T06:53:48.369Z,70.77
2018-07-06T06:56:23.381Z,69.84
2018-07-06T06:58:52.705Z,69.72
2018-07-06T07:01:21.897Z,68.53
2018-07-06T07:03:51.117Z,70.52
2018-07-06T07:06:20.322Z,69.68
2018-07-06T07:08:49.493Z,69.21
2018-07-06T07:11:18.617Z,70.29
2018-07-06T07:13:47.864Z,69.41
2018-07-06T07:16:17.008Z,70.02
2018-07-06T07:18:46.158Z,69.97
2018-07-06T07:21:15.337Z,69.43
2018-07-06T07:23:44.532Z,68.71
2018-07-06T07:26:13.661Z,68.82
2018-07-06T07:28:42.892Z,69.93
2018-07-06T07:31:12.039Z,69.26
2018-07-06T07:33:41.197Z,68.70
2018-07-06T07:36:10.341Z,68.77
2018-07-06T07:38:39.493Z,68.16
2018-07-06T07:41:08.633Z,69.44
2018-07-06T07:43:37.750Z,69.13
2018-07-06T07:46:07.126Z,67.74
2018-07-06T07:48:36.253Z,68.68
2018-07-06T07:51:16.577Z,67.80
2018-07-06T07:54:32.599Z,68.04
2018-07-06T07:57:02.597Z,66.62
2018-07-06T07:59:33.311Z,67.01
2018-07-06T08:02:04.560Z,66.50
2018-07-06T08:04:33.724Z,67.63
2018-07-06T08:07:02.971Z,66.19
2018-07-06T08:09:33.123Z,67.79
2018-07-06T08:12:03.305Z,67.13
2018-07-06T08:14:32.538Z,67.30
2018-07-06T08:17:01.609Z,67.16
2018-07-06T08:19:30.738Z,66.59
2018-07-06T08:22:01.030Z,66.93
2018-07-06T08:24:30.148Z,65.35
2018-07-06T08:26:59.289Z,65.52
2018-07-06T08:29:28.461Z,64.49
2018-07-06T08:31:57.658Z,63.88
2018-07-06T08:34:38.164Z,64.68
2018-07-06T08:37:31.854Z,64.42
2018-07-06T08:40:01.069Z,64.70
2018-07-06T08:42:31.362Z,64.48
2018-07-06T08:45:01.045Z,63.73
2018-07-06T08:47:31.201Z,64.62
2018-07-06T08:50:01.233Z,63.94
2018-07-06T08:52:30.429Z,63.63
2018-07-06T08:54:59.702Z,62.19
2018-07-06T08:57:29.933Z,61.33
2018-07-06T09:00:02.432Z,61.48
2018-07-06T09:02:31.565Z,61.55
2018-07-06T09:05:01.308Z,60.21
2018-07-06T09:07:30.776Z,58.52
2018-07-06T09:10:09.853Z,58.18
2018-07-06T09:12:39.405Z,58.71
2018-07-06T09:15:08.834Z,58.12
2018-07-06T09:17:37.985Z,59.60
2018-07-06T09:20:07.248Z,58.84
2018-07-06T09:22:36.281Z,57.38
2018-07-06T09:25:06.449Z,57.79
2018-07-06T09:27:35.611Z,57.76
2018-07-06T09:30:04.801Z,59.33
2018-07-06T09:32:33.933Z,58.39
2018-07-06T09:35:03.113Z,59.23
2018-07-06T09:37:39.790Z,58.22
2018-07-06T09:40:09.465Z,57.22
2018-07-06T09:42:38.593Z,58.71
2018-07-06T09:45:07.753Z,58.11
2018-07-06T09:47:36.882Z,56.43
2018-07-06T09:50:06.080Z,57.60
2018-07-06T09:52:35.208Z,58.74
2018-07-06T09:55:04.397Z,57.20
2018-07-06T09:57:33.501Z,57.50
2018-07-06T10:00:02.718Z,56.92
2018-07-06T10:02:31.839Z,57.78
2018-07-06T10:05:01.046Z,57.27
2018-07-06T10:07:31.335Z,56.56
2018-07-06T10:10:00.453Z,55.53
2018-07-06T10:12:29.587Z,55.90
2018-07-06T10:14:58.697Z,55.06
2018-07-06T10:17:27.813Z,55.32
2018-07-06T10:19:56.934Z,55.90
2018-07-06T10:22:26.026Z,55.03
2018-07-06T10:24:55.149Z,55.08
2018-07-06T10:27:32.054Z,54.95
2018-07-06T10:30:06.673Z,53.73
2018-07-06T10:32:35.782Z,51.88
2018-07-06T10:35:05.040Z,53.40
2018-07-06T10:37:34.155Z,52.87
2018-07-06T10:40:03.456Z,52.88
2018-07-06T10:42:32.465Z,53.79
2018-07-06T10:45:01.585Z,53.08
2018-07-06T10:47:30.753Z,52.88
2018-07-06T10:49:59.875Z,52.10
2018-07-06T10:52:29.022Z,52.38
2018-07-06T10:54:58.189Z,53.11
2018-07-06T10:57:27.349Z,51.23
2018-07-06T10:59:56.509Z,52.40
2018-07-06T11:02:25.652Z,52.13
2018-07-06T11:04:54.883Z,51.83
2018-07-06T11:07:23.941Z,51.19
2018-07-06T11:09:53.088Z,51.44
2018-07-06T11:12:22.218Z,50.26
2018-07-06T11:14:51.337Z,50.71
2018-07-06T11:17:20.558Z,50.17
2018-07-06T11:19:50.496Z,50.00
2018-07-06T11:22:19.662Z,49.56
2018-07-06T11:24:48.865Z,50.23
2018-07-06T11:27:17.962Z,50.93
2018-07-06T11:29:47.092Z,49.17
2018-07-06T11:32:16.235Z,49.25
2018-07-06T11:34:45.341Z,47.55
2018-07-06T11:37:14.501Z,47.48
2018-07-06T11:39:43.629Z,48.13
2018-07-06T11:42:12.742Z,47.17
2018-07-06T11:44:41.901Z,46.15
2018-07-06T11:47:12.122Z,46.85
2018-07-06T11:49:41.249Z,47.29
2018-07-06T11:52:10.409Z,46.38
2018-07-06T11:54:39.513Z,46.80
2018-07-06T11:57:08.733Z,47.10
2018-07-06T11:59:37.833Z,46.34
2018-07-06T12:02:06.964Z,45.95
2018-07-06T12:04:36.208Z,47.04
2018-07-06T12:07:05.214Z,46.35
2018-07-06T12:09:34.332Z,45.23
2018-07-06T12:12:03.461Z,44.23
2018-07-06T12:14:32.561Z,44.88
2018-07-06T12:17:01.702Z,43.85
2018-07-06T12:19:30.802Z,43.05
2018-07-06T12:22:03.451Z,44.62
2018-07-06T12:24:32.621Z,44.51
2018-07-06T12:27:02.299Z,45.10
2018-07-06T12:29:31.390Z,44.05
2018-07-06T12:32:00.493Z,43.99
2018-07-06T12:34:31.737Z,44.56
2018-07-06T12:37:00.873Z,44.33
2018-07-06T12:39:29.953Z,44.13
2018-07-06T12:41:59.059Z,42.72
2018-07-06T12:44:28.219Z,43.27
2018-07-06T12:46:57.359Z,43.98
2018-07-06T12:49:26.489Z,43.39
2018-07-06T12:51:55.605Z,42.98
2018-07-06T12:54:25.039Z,42.45
2018-07-06T12:56:54.261Z,42.60
2018-07-06T12:59:23.461Z,43.29
2018-07-06T13:01:52.697Z,43.82
2018-07-06T13:04:21.893Z,42.66
2018-07-06T13:06:51.057Z,40.76
2018-07-06T13:09:20.297Z,41.80
2018-07-06T13:11:49.490Z,42.17
2018-07-06T13:14:18.785Z,42.28
2018-07-06T13:16:48.011Z,42.38
2018-07-06T13:19:18.122Z,41.17
2018-07-06T13:21:47.805Z,41.32
2018-07-06T13:24:17.026Z,41.35
2018-07-06T13:26:51.352Z,41.92
2018-07-06T13:29:20.607Z,41.59
2018-07-06T13:31:49.834Z,41.74
2018-07-06T13:34:19.143Z,41.06
2018-07-06T13:36:48.303Z,41.31
2018-07-06T13:39:17.458Z,40.67
2018-07-06T13:41:46.613Z,41.03
2018-07-06T13:44:16.899Z,39.79
2018-07-06T13:46:46.058Z,38.38
2018-07-06T13:49:15.197Z,38.62
2018-07-06T13:51:44.330Z,38.08
2018-07-06T13:54:13.481Z,39.15
2018-07-06T13:56:42.618Z,38.09
2018-07-06T13:59:12.221Z,39.80
2018-07-06T14:01:51.869Z,38.49
2018-07-06T14:04:21.022Z,38.84
2018-07-06T14:06:50.249Z,38.40
2018-07-06T14:09:19.491Z,37.05
2018-07-06T14:11:48.679Z,38.43
2018-07-06T14:14:17.813Z,37.94
2018-07-06T14:16:46.926Z,39.63
2018-07-06T14:19:16.057Z,38.50
2018-07-06T14:21:45.217Z,39.67
2018-07-06T14:24:14.461Z,39.40
2018-07-06T14:26:43.571Z,38.78
2018-07-06T14:29:12.746Z,39.38
2018-07-06T14:31:41.845Z,38.07
2018-07-06T14:34:11.025Z,38.62
2018-07-06T14:36:40.157Z,38.91
2018-07-06T14:39:09.549Z,38.94
2018-07-06T14:41:38.900Z,38.41
2018-07-06T14:44:08.245Z,39.35
2018-07-06T14:46:37.493Z,38.10
2018-07-06T14:49:06.657Z,38.32
2018-07-06T14:51:35.910Z,38.06
2018-07-06T14:54:05.061Z,38.44
2018-07-06T14:56:34.189Z,38.53
2018-07-06T14:59:03.413Z,37.15
2018-07-06T15:01:32.565Z,37.68
2018-07-06T15:04:02.037Z,37.78
2018-07-06T15:06:31.316Z,37.74
2018-07-06T15:09:00.493Z,37.28
2018-07-06T15:11:29.649Z,37.40
2018-07-06T15:13:58.768Z,36.34
2018-07-06T15:16:27.905Z,36.84
2018-07-06T15:18:57.037Z,37.53
2018-07-06T15:21:26.161Z,37.15
2018-07-06T15:23:55.285Z,37.58
2018-07-06T15:26:24.406Z,37.12
2018-07-06T15:28:53.737Z,37.98
2018-07-06T15:31:22.952Z,37.74
2018-07-06T15:33:52.086Z,39.14
2018-07-06T15:36:21.302Z,40.57
2018-07-06T15:38:50.567Z,40.26
2018-07-06T15:41:21.030Z,39.60
2018-07-06T15:43:51.005Z,40.19
2018-07-06T15:46:20.398Z,39.78
2018-07-06T15:48:49.506Z,40.61
2018-07-06T15:51:18.654Z,40.54
2018-07-06T15:53:47.769Z,41.53
2018-07-06T15:56:16.918Z,41.13
2018-07-06T15:58:46.041Z,41.29
2018-07-06T16:01:15.205Z,42.13
2018-07-06T16:03:44.301Z,41.90
2018-07-06T16:06:13.438Z,41.49
2018-07-06T16:08:43.679Z,41.58
2018-07-06T16:11:12.795Z,42.39
2018-07-06T16:13:41.890Z,41.42
2018-07-06T16:16:10.978Z,41.91
2018-07-06T16:18:40.077Z,41.82
2018-07-06T16:21:09.189Z,41.72
2018-07-06T16:23:38.373Z,41.19
2018-07-06T16:26:07.489Z,42.60
2018-07-06T16:28:36.605Z,41.36
2018-07-06T16:31:05.810Z,41.66
2018-07-06T16:33:34.910Z,41.01
2018-07-06T16:36:04.042Z,41.35
2018-07-06T16:38:33.200Z,42.42
2018-07-06T16:41:02.472Z,40.90
2018-07-06T16:43:31.593Z,42.04
2018-07-06T16:46:00.838Z,40.76
2018-07-06T16:48:29.921Z,40.83
2018-07-06T16:50:59.526Z,42.01
2018-07-06T16:53:28.653Z,41.16
2018-07-06T16:55:57.785Z,42.36
2018-07-06T16:58:26.908Z,41.29
2018-07-06T17:00:56.043Z,42.28
2018-07-06T17:03:25.145Z,42.61
2018-07-06T17:05:54.293Z,40.57
2018-07-06T17:08:23.410Z,40.41
2018-07-06T17:10:53.058Z,41.64
2018-07-06T17:13:23.245Z,40.92
2018-07-06T17:15:52.481Z,41.78
2018-07-06T17:18:22.078Z,42.04
2018-07-06T17:20:51.252Z,41.27
2018-07-06T17:23:20.454Z,42.26
2018-07-06T17:25:49.748Z,42.74
2018-07-06T17:28:18.969Z,43.19
2018-07-06T17:30:48.101Z,42.21
2018-07-06T17:33:17.186Z,42.86
2018-07-06T17:35:46.313Z,42.35
2018-07-06T17:38:15.427Z,43.30
2018-07-06T17:40:44.609Z,43.18
2018-07-06T17:43:13.682Z,43.18
2018-07-06T17:45:42.807Z,43.02
2018-07-06T17:48:11.938Z,43.43
2018-07-06T17:50:41.013Z,42.26
2018-07-06T17:53:10.137Z,42.51
2018-07-06T17:55:39.253Z,42.85
2018-07-06T17:58:08.345Z,42.70
2018-07-06T18:00:37.570Z,42.70
2018-07-06T18:03:06.641Z,43.15
2018-07-06T18:05:35.849Z,42.28
2018-07-06T18:08:05.050Z,43.06
2018-07-06T18:10:34.149Z,42.76
2018-07-06T18:13:03.269Z,43.60
2018-07-06T18:15:32.425Z,43.71
2018-07-06T18:18:01.533Z,44.02
2018-07-06T18:20:30.790Z,43.56
2018-07-06T18:23:00.015Z,43.41
2018-07-06T18:25:29.105Z,44.32
2018-07-06T18:27:58.181Z,43.65
2018-07-06T18:30:27.336Z,44.54
2018-07-06T18:32:56.417Z,43.67
2018-07-06T18:35:25.573Z,44.39
2018-07-06T18:37:54.677Z,43.94
2018-07-06T18:40:23.858Z,44.62
2018-07-06T18:42:52.961Z,45.02
2018-07-06T18:45:22.068Z,44.65
2018-07-06T18:47:51.447Z,44.00
2018-07-06T18:50:20.629Z,44.15
2018-07-06T18:52:49.808Z,43.69
2018-07-06T18:55:18.977Z,44.78
2018-07-06T18:57:48.097Z,43.54
2018-07-06T19:00:17.196Z,44.11
2018-07-06T19:02:46.314Z,44.97
2018-07-06T19:05:15.405Z,43.87
2018-07-06T19:07:44.519Z,44.10
2018-07-06T19:10:13.637Z,44.63
2018-07-06T19:12:42.845Z,43.88
2018-07-06T19:15:12.070Z,44.22
2018-07-06T19:17:41.185Z,44.38
2018-07-06T19:20:10.517Z,43.98
2018-07-06T19:22:39.670Z,44.63
2018-07-06T19:25:09.017Z,44.69
2018-07-06T19:27:38.446Z,44.81
2018-07-06T19:30:07.830Z,45.63
2018-07-06T19:32:36.957Z,45.23
2018-07-06T19:35:06.068Z,45.45
2018-07-06T19:37:35.177Z,45.17
2018-07-06T19:40:04.297Z,44.87
2018-07-06T19:42:33.417Z,46.28
2018-07-06T19:45:02.528Z,46.76
2018-07-06T19:47:36.991Z,46.02
2018-07-06T19:50:06.086Z,46.12
2018-07-06T19:52:35.337Z,46.21
2018-07-06T19:55:04.467Z,47.02
2018-07-06T19:57:33.612Z,46.98
2018-07-06T20:00:02.671Z,48.21
2018-07-06T20:02:31.757Z,47.38
2018-07-06T20:05:00.865Z,47.79
2018-07-06T20:07:29.973Z,47.63
2018-07-06T20:09:59.083Z,49.16
2018-07-06T20:12:28.225Z,49.31
2018-07-06T20:14:57.333Z,47.88
2018-07-06T20:17:26.437Z,48.75
2018-07-06T20:19:55.527Z,49.71
2018-07-06T20:22:24.613Z,49.67
2018-07-06T20:24:53.950Z,50.03
2018-07-06T20:27:23.053Z,49.46
2018-07-06T20:29:52.133Z,50.57
2018-07-06T20:32:21.278Z,50.42
2018-07-06T20:34:50.411Z,50.80
2018-07-06T20:37:19.548Z,50.86
2018-07-06T20:39:49.418Z,49.57
2018-07-06T20:42:18.529Z,50.64
2018-07-06T20:44:47.635Z,50.52
2018-07-06T20:47:16.701Z,51.16
2018-07-06T20:49:45.865Z,51.56
2018-07-06T20:52:14.965Z,51.46
2018-07-06T20:54:44.393Z,51.94
2018-07-06T20:57:13.493Z,53.06
2018-07-06T20:59:42.741Z,53.22
2018-07-06T21:02:13.293Z,52.44
2018-07-06T21:04:42.579Z,53.24
2018-07-06T21:07:11.879Z,53.39
2018-07-06T21:09:41.047Z,52.76
2018-07-06T21:12:10.180Z,53.86
2018-07-06T21:14:39.269Z,54.50
2018-07-06T21:17:08.409Z,53.86
2018-07-06T21:19:37.523Z,54.28
2018-07-06T21:22:07.557Z,53.77
2018-07-06T21:24:36.997Z,54.60
2018-07-06T21:27:06.105Z,54.86
2018-07-06T21:29:35.225Z,54.80
2018-07-06T21:32:04.342Z,55.83
2018-07-06T21:34:33.469Z,54.62
2018-07-06T21:37:02.597Z,54.43
2018-07-06T21:39:31.705Z,55.92
2018-07-06T21:42:00.817Z,55.42
2018-07-06T21:44:29.909Z,55.88
2018-07-06T21:46:59.024Z,54.96
2018-07-06T21:49:28.153Z,54.96
2018-07-06T21:51:57.253Z,56.14
2018-07-06T21:54:26.329Z,56.05
2018-07-06T21:56:55.436Z,55.89
2018-07-06T21:59:24.533Z,56.48
2018-07-06T22:01:53.672Z,56.80
2018-07-06T22:04:22.757Z,57.55
2018-07-06T22:06:51.877Z,57.37
2018-07-06T22:09:20.974Z,56.95
2018-07-06T22:11:50.145Z,58.09
2018-07-06T22:14:19.253Z,57.20
2018-07-06T22:16:48.337Z,58.14
2018-07-06T22:19:17.453Z,57.95
2018-07-06T22:21:46.566Z,58.20
2018-07-06T22:24:15.667Z,57.85
2018-07-06T22:26:44.742Z,58.37
2018-07-06T22:29:13.983Z,58.65
2018-07-06T22:31:48.611Z,58.48
2018-07-06T22:34:17.700Z,58.64
2018-07-06T22:36:48.146Z,59.10
2018-07-06T22:39:17.245Z,57.85
2018-07-06T22:41:46.402Z,58.49
2018-07-06T22:44:15.928Z,59.14
2018-07-06T22:46:45.019Z,58.74
2018-07-06T22:49:14.121Z,58.45
2018-07-06T22:51:43.224Z,58.75
2018-07-06T22:54:12.312Z,58.35
2018-07-06T22:56:41.401Z,59.08
2018-07-06T22:59:10.485Z,59.44
2018-07-06T23:01:39.596Z,59.45
2018-07-06T23:04:08.713Z,58.68
2018-07-06T23:06:37.799Z,59.92
2018-07-06T23:09:07.166Z,60.15
2018-07-06T23:11:36.313Z,59.46
2018-07-06T23:14:05.417Z,59.46
2018-07-06T23:16:34.513Z,59.82
2018-07-06T23:19:03.618Z,60.58
2018-07-06T23:21:32.693Z,60.65
2018-07-06T23:24:01.809Z,60.19
2018-07-06T23:26:30.923Z,60.11
2018-07-06T23:29:00.062Z,60.13
2018-07-06T23:31:29.153Z,61.12
2018-07-06T23:33:58.325Z,61.41
2018-07-06T23:36:27.431Z,60.59
2018-07-06T23:38:56.553Z,61.67
2018-07-06T23:41:25.628Z,61.62
2018-07-06T23:43:54.714Z,61.21
2018-07-06T23:46:23.810Z,60.75
2018-07-06T23:48:52.925Z,61.03
2018-07-06T23:51:22.009Z,61.08
2018-07-06T23:53:51.102Z,62.10
2018-07-06T23:56:20.205Z,62.28
2018-07-06T23:58:49.313Z,63.08
